PWSweather.com
Personal Weather Stations
Station Observations
SHAHALMS1
Eftra, Falkenberg, HA

EftraFalkenberg, HA

Lat: 56.85, Lon: 12.65

Elevation: 140

Station Type:

http://hem.passagen.se/risarp101

High Low Average
Temperature 43.7°F6.5°C 35.2°F1.8°C 39.2°F4.0°C
Dew Point 39.9°F4.4°C 33.4°F0.8°C 36.6°F2.6°C
Winds 12.6 mph 20.3 kmh 0.2 mph 0.3 kmh 7.0 mph SE11.3 kmh SE
Wind Gusts 30.8 mph49.6 kmh 6.1 mph9.8 kmh 16.0 mph25.7 kmh
Humidity 95% 79% 90%
Pressure 29.74 in1007.1 mb 29.36 in994.2 mb -
Precipitation 0.66 in16.8 mm - -
Hour Temp Dew Point Humidity Winds Wind Gusts Pressure Precip Precip Rate Daily Precip Total
12:00 AM 36.0°F2.2°C 34.1°F1.2°C 93% 2.1 mph SSE3.4 kmh SSE 9.3 mph15.0 kmh 29.65 in1004.1 mb 0.00 in0.0 mm 0.00 in0.0 mm 0.00 in0.0 mm
12:15 AM 36.0°F2.2°C 34.1°F1.2°C 93% 1.8 mph SE2.9 kmh SE 10.0 mph16.1 kmh 29.68 in1005.1 mb 0.00 in0.0 mm 0.00 in0.0 mm 0.00 in0.0 mm
12:30 AM 36.0°F2.2°C 34.1°F1.2°C 93% 2.5 mph SE4.0 kmh SE 12.2 mph19.6 kmh 29.68 in1005.1 mb 0.00 in0.0 mm 0.00 in0.0 mm 0.00 in0.0 mm
12:45 AM 36.0°F2.2°C 34.1°F1.2°C 93% 4.2 mph SE6.8 kmh SE 12.2 mph19.6 kmh 29.68 in1005.1 mb 0.00 in0.0 mm 0.00 in0.0 mm 0.00 in0.0 mm
01:00 AM 36.0°F2.2°C 34.1°F1.2°C 93% 3.2 mph SE5.1 kmh SE 8.9 mph14.3 kmh 29.68 in1005.1 mb 0.00 in0.0 mm 0.00 in0.0 mm 0.00 in0.0 mm
01:15 AM 36.1°F2.3°C 34.3°F1.3°C 93% 0.7 mph SSE1.1 kmh SSE 6.4 mph10.3 kmh 29.68 in1005.1 mb 0.00 in0.0 mm 0.00 in0.0 mm 0.00 in0.0 mm
01:30 AM 36.3°F2.4°C 34.5°F1.4°C 93% 2.0 mph SSE3.2 kmh SSE 10.4 mph16.7 kmh 29.68 in1005.1 mb 0.00 in0.0 mm 0.00 in0.0 mm 0.00 in0.0 mm
01:45 AM 36.3°F2.4°C 34.5°F1.4°C 93% 0.2 mph SSE0.3 kmh SSE 7.5 mph12.1 kmh 29.68 in1005.1 mb 0.00 in0.0 mm 0.00 in0.0 mm 0.00 in0.0 mm
02:00 AM 36.7°F2.6°C 35.1°F1.7°C 94% 0.5 mph S0.8 kmh S 6.1 mph9.8 kmh 29.68 in1005.1 mb 0.00 in0.0 mm 0.00 in0.0 mm 0.00 in0.0 mm
02:15 AM 36.7°F2.6°C 34.8°F1.6°C 93% 4.1 mph S6.6 kmh S 12.9 mph20.8 kmh 29.68 in1005.1 mb 0.00 in0.0 mm 0.00 in0.0 mm 0.00 in0.0 mm
02:30 AM 36.7°F2.6°C 34.8°F1.6°C 93% 0.8 mph S1.3 kmh S 6.8 mph10.9 kmh 29.68 in1005.1 mb 0.00 in0.0 mm 0.00 in0.0 mm 0.00 in0.0 mm
02:45 AM 36.7°F2.6°C 34.8°F1.6°C 93% 2.8 mph SSE4.5 kmh SSE 10.0 mph16.1 kmh 29.68 in1005.1 mb 0.00 in0.0 mm 0.00 in0.0 mm 0.00 in0.0 mm
03:00 AM 36.5°F2.5°C 34.7°F1.5°C 93% 1.1 mph SSE1.8 kmh SSE 7.5 mph12.1 kmh 29.68 in1005.1 mb 0.00 in0.0 mm 0.00 in0.0 mm 0.00 in0.0 mm
03:15 AM 36.3°F2.4°C 34.5°F1.4°C 93% 2.2 mph SSE3.5 kmh SSE 11.8 mph19.0 kmh 29.68 in1005.1 mb 0.00 in0.0 mm 0.00 in0.0 mm 0.00 in0.0 mm
03:30 AM 36.0°F2.2°C 34.1°F1.2°C 93% 5.3 mph SSE8.5 kmh SSE 19.3 mph31.1 kmh 29.71 in1006.1 mb 0.00 in0.0 mm 0.00 in0.0 mm 0.00 in0.0 mm
03:45 AM 35.6°F2.0°C 33.8°F1.0°C 93% 5.4 mph SSE8.7 kmh SSE 16.1 mph25.9 kmh 29.71 in1006.1 mb 0.00 in0.0 mm 0.00 in0.0 mm 0.00 in0.0 mm
04:00 AM 35.6°F2.0°C 33.8°F1.0°C 93% 5.1 mph S8.2 kmh S 12.2 mph19.6 kmh 29.71 in1006.1 mb 0.00 in0.0 mm 0.00 in0.0 mm 0.00 in0.0 mm
04:15 AM 35.2°F1.8°C 33.4°F0.8°C 93% 4.8 mph SE7.7 kmh SE 11.8 mph19.0 kmh 29.74 in1007.1 mb 0.00 in0.0 mm 0.00 in0.0 mm 0.00 in0.0 mm
04:27 AM 35.2°F1.8°C 33.4°F0.8°C 93% 8.1 mph SSE13.0 kmh SSE 10.4 mph16.7 kmh 29.74 in1007.1 mb 0.00 in0.0 mm 0.00 in0.0 mm 0.00 in0.0 mm
04:29 AM 35.2°F1.8°C 33.4°F0.8°C 93% 8.9 mph SE14.3 kmh SE 12.9 mph20.8 kmh 29.74 in1007.1 mb 0.00 in0.0 mm 0.00 in0.0 mm 0.00 in0.0 mm
04:31 AM 35.2°F1.8°C 33.4°F0.8°C 93% 7.0 mph SE11.3 kmh SE 14.7 mph23.7 kmh 29.74 in1007.1 mb 0.00 in0.0 mm 0.00 in0.0 mm 0.00 in0.0 mm
04:45 AM 35.4°F1.9°C 33.9°F1.1°C 94% 6.6 mph SSE10.6 kmh SSE 14.0 mph22.5 kmh 29.74 in1007.1 mb 0.04 in1.0 mm 0.17 in4.3 mm 0.04 in1.0 mm
05:00 AM 35.6°F2.0°C 34.0°F1.1°C 94% 8.4 mph SE13.5 kmh SE 16.1 mph25.9 kmh 29.71 in1006.1 mb 0.04 in1.0 mm 0.00 in0.0 mm 0.04 in1.0 mm
05:15 AM 35.8°F2.1°C 34.2°F1.2°C 94% 5.1 mph SE8.2 kmh SE 12.9 mph20.8 kmh 29.71 in1006.1 mb 0.04 in1.0 mm 0.00 in0.0 mm 0.04 in1.0 mm
05:30 AM 36.0°F2.2°C 34.4°F1.3°C 94% 6.0 mph SE9.7 kmh SE 16.5 mph26.6 kmh 29.74 in1007.1 mb 0.04 in1.0 mm 0.00 in0.0 mm 0.04 in1.0 mm
05:45 AM 35.6°F2.0°C 34.0°F1.1°C 94% 5.3 mph ESE8.5 kmh ESE 13.6 mph21.9 kmh 29.71 in1006.1 mb 0.00 in0.0 mm 0.00 in0.0 mm 0.04 in1.0 mm
06:00 AM 35.8°F2.1°C 34.2°F1.2°C 94% 5.3 mph SE8.5 kmh SE 12.9 mph20.8 kmh 29.71 in1006.1 mb 0.00 in0.0 mm 0.00 in0.0 mm 0.04 in1.0 mm
06:15 AM 35.6°F2.0°C 34.0°F1.1°C 94% 2.5 mph E4.0 kmh E 8.9 mph14.3 kmh 29.68 in1005.1 mb 0.00 in0.0 mm 0.00 in0.0 mm 0.04 in1.0 mm
06:30 AM 35.6°F2.0°C 34.0°F1.1°C 94% 7.8 mph E12.6 kmh E 12.2 mph19.6 kmh 29.68 in1005.1 mb 0.00 in0.0 mm 0.00 in0.0 mm 0.04 in1.0 mm
06:45 AM 35.6°F2.0°C 34.0°F1.1°C 94% 8.2 mph E13.2 kmh E 14.0 mph22.5 kmh 29.71 in1006.1 mb 0.00 in0.0 mm 0.00 in0.0 mm 0.04 in1.0 mm
07:00 AM 35.8°F2.1°C 34.2°F1.2°C 94% 8.7 mph SE14.0 kmh SE 14.0 mph22.5 kmh 29.68 in1005.1 mb 0.00 in0.0 mm 0.00 in0.0 mm 0.04 in1.0 mm
07:15 AM 36.5°F2.5°C 35.2°F1.8°C 95% 3.9 mph SE6.3 kmh SE 11.5 mph18.5 kmh 29.71 in1006.1 mb 0.00 in0.0 mm 0.00 in0.0 mm 0.04 in1.0 mm
07:30 AM 37.0°F2.8°C 35.7°F2.1°C 95% 5.0 mph SE8.0 kmh SE 11.8 mph19.0 kmh 29.71 in1006.1 mb 0.00 in0.0 mm 0.00 in0.0 mm 0.04 in1.0 mm
07:45 AM 37.6°F3.1°C 36.3°F2.4°C 95% 1.9 mph SE3.1 kmh SE 10.4 mph16.7 kmh 29.71 in1006.1 mb 0.00 in0.0 mm 0.00 in0.0 mm 0.04 in1.0 mm
08:00 AM 38.1°F3.4°C 36.8°F2.7°C 95% 6.7 mph SSE10.8 kmh SSE 17.2 mph27.7 kmh 29.71 in1006.1 mb 0.00 in0.0 mm 0.00 in0.0 mm 0.04 in1.0 mm
08:15 AM 38.8°F3.8°C 37.5°F3.1°C 95% 6.1 mph S9.8 kmh S 19.7 mph31.7 kmh 29.68 in1005.1 mb 0.00 in0.0 mm 0.00 in0.0 mm 0.04 in1.0 mm
08:30 AM 39.2°F4.0°C 37.9°F3.3°C 95% 5.2 mph SE8.4 kmh SE 16.8 mph27.0 kmh 29.68 in1005.1 mb 0.00 in0.0 mm 0.00 in0.0 mm 0.04 in1.0 mm
08:45 AM 39.2°F4.0°C 37.6°F3.1°C 94% 4.3 mph SSE6.9 kmh SSE 12.2 mph19.6 kmh 29.68 in1005.1 mb 0.00 in0.0 mm 0.00 in0.0 mm 0.04 in1.0 mm
09:00 AM 39.4°F4.1°C 37.8°F3.2°C 94% 5.7 mph SSE9.2 kmh SSE 19.0 mph30.6 kmh 29.68 in1005.1 mb 0.00 in0.0 mm 0.00 in0.0 mm 0.04 in1.0 mm
09:15 AM 39.4°F4.1°C 37.8°F3.2°C 94% 4.7 mph SSE7.6 kmh SSE 14.7 mph23.7 kmh 29.71 in1006.1 mb 0.00 in0.0 mm 0.00 in0.0 mm 0.04 in1.0 mm
09:30 AM 39.6°F4.2°C 37.7°F3.2°C 93% 6.0 mph SSE9.7 kmh SSE 16.1 mph25.9 kmh 29.71 in1006.1 mb 0.00 in0.0 mm 0.00 in0.0 mm 0.04 in1.0 mm
09:45 AM 39.7°F4.3°C 37.6°F3.1°C 92% 7.0 mph SE11.3 kmh SE 14.0 mph22.5 kmh 29.71 in1006.1 mb 0.00 in0.0 mm 0.00 in0.0 mm 0.04 in1.0 mm
10:00 AM 40.1°F4.5°C 38.0°F3.3°C 92% 3.6 mph SSE5.8 kmh SSE 12.5 mph20.1 kmh 29.71 in1006.1 mb 0.00 in0.0 mm 0.00 in0.0 mm 0.04 in1.0 mm
10:15 AM 39.9°F4.4°C 37.2°F2.9°C 90% 4.5 mph ESE7.2 kmh ESE 12.9 mph20.8 kmh 29.71 in1006.1 mb 0.00 in0.0 mm 0.00 in0.0 mm 0.04 in1.0 mm
10:30 AM 39.9°F4.4°C 37.2°F2.9°C 90% 3.1 mph SE5.0 kmh SE 9.7 mph15.6 kmh 29.71 in1006.1 mb 0.00 in0.0 mm 0.00 in0.0 mm 0.04 in1.0 mm
10:45 AM 39.9°F4.4°C 36.9°F2.7°C 89% 4.9 mph SSE7.9 kmh SSE 14.0 mph22.5 kmh 29.71 in1006.1 mb 0.00 in0.0 mm 0.00 in0.0 mm 0.04 in1.0 mm
11:00 AM 40.3°F4.6°C 37.3°F2.9°C 89% 7.9 mph SE12.7 kmh SE 20.4 mph32.8 kmh 29.71 in1006.1 mb 0.00 in0.0 mm 0.00 in0.0 mm 0.04 in1.0 mm
11:15 AM 40.8°F4.9°C 37.8°F3.2°C 89% 4.1 mph SE6.6 kmh SE 20.8 mph33.5 kmh 29.71 in1006.1 mb 0.00 in0.0 mm 0.00 in0.0 mm 0.04 in1.0 mm
11:30 AM 40.6°F4.8°C 37.1°F2.8°C 87% 7.5 mph SE12.1 kmh SE 17.5 mph28.2 kmh 29.68 in1005.1 mb 0.00 in0.0 mm 0.00 in0.0 mm 0.04 in1.0 mm
11:45 AM 40.5°F4.7°C 36.6°F2.6°C 86% 11.2 mph SE18.0 kmh SE 23.3 mph37.5 kmh 29.71 in1006.1 mb 0.00 in0.0 mm 0.00 in0.0 mm 0.04 in1.0 mm
12:00 PM 41.0°F5.0°C 37.4°F3.0°C 87% 6.6 mph SE10.6 kmh SE 17.2 mph27.7 kmh 29.71 in1006.1 mb 0.00 in0.0 mm 0.00 in0.0 mm 0.04 in1.0 mm
12:15 PM 41.2°F5.1°C 37.0°F2.8°C 85% 9.5 mph SE15.3 kmh SE 19.7 mph31.7 kmh 29.71 in1006.1 mb 0.00 in0.0 mm 0.00 in0.0 mm 0.04 in1.0 mm
12:30 PM 41.7°F5.4°C 37.5°F3.1°C 85% 10.0 mph SE16.1 kmh SE 16.8 mph27.0 kmh 29.71 in1006.1 mb 0.00 in0.0 mm 0.00 in0.0 mm 0.04 in1.0 mm
12:45 PM 42.4°F5.8°C 38.2°F3.4°C 85% 7.5 mph SE12.1 kmh SE 17.2 mph27.7 kmh 29.71 in1006.1 mb 0.00 in0.0 mm 0.00 in0.0 mm 0.04 in1.0 mm
01:00 PM 42.6°F5.9°C 38.1°F3.4°C 84% 6.5 mph SE10.5 kmh SE 15.7 mph25.3 kmh 29.71 in1006.1 mb 0.00 in0.0 mm 0.00 in0.0 mm 0.04 in1.0 mm
01:15 PM 42.8°F6.0°C 38.3°F3.5°C 84% 7.8 mph SE12.6 kmh SE 17.9 mph28.8 kmh 29.68 in1005.1 mb 0.00 in0.0 mm 0.00 in0.0 mm 0.04 in1.0 mm
01:30 PM 43.2°F6.2°C 38.7°F3.7°C 84% 7.2 mph SE11.6 kmh SE 17.5 mph28.2 kmh 29.68 in1005.1 mb 0.00 in0.0 mm 0.00 in0.0 mm 0.04 in1.0 mm
01:45 PM 43.3°F6.3°C 38.5°F3.6°C 83% 6.3 mph SE10.1 kmh SE 15.4 mph24.8 kmh 29.68 in1005.1 mb 0.00 in0.0 mm 0.00 in0.0 mm 0.04 in1.0 mm
02:00 PM 43.5°F6.4°C 38.4°F3.6°C 82% 7.9 mph SE12.7 kmh SE 15.4 mph24.8 kmh 29.65 in1004.1 mb 0.00 in0.0 mm 0.00 in0.0 mm 0.04 in1.0 mm
02:15 PM 43.7°F6.5°C 38.6°F3.7°C 82% 6.2 mph SE10.0 kmh SE 13.6 mph21.9 kmh 29.65 in1004.1 mb 0.00 in0.0 mm 0.00 in0.0 mm 0.04 in1.0 mm
02:30 PM 43.5°F6.4°C 38.1°F3.4°C 81% 6.7 mph SE10.8 kmh SE 20.0 mph32.2 kmh 29.65 in1004.1 mb 0.00 in0.0 mm 0.00 in0.0 mm 0.04 in1.0 mm
02:45 PM 43.5°F6.4°C 37.8°F3.2°C 80% 7.2 mph SE11.6 kmh SE 16.1 mph25.9 kmh 29.65 in1004.1 mb 0.00 in0.0 mm 0.00 in0.0 mm 0.04 in1.0 mm
03:00 PM 43.5°F6.4°C 37.4°F3.0°C 79% 7.1 mph SE11.4 kmh SE 14.0 mph22.5 kmh 29.65 in1004.1 mb 0.00 in0.0 mm 0.00 in0.0 mm 0.04 in1.0 mm
03:15 PM 43.3°F6.3°C 37.6°F3.1°C 80% 7.9 mph SE12.7 kmh SE 21.1 mph34.0 kmh 29.65 in1004.1 mb 0.00 in0.0 mm 0.00 in0.0 mm 0.04 in1.0 mm
03:30 PM 43.2°F6.2°C 37.4°F3.0°C 80% 7.2 mph SE11.6 kmh SE 17.2 mph27.7 kmh 29.62 in1003.0 mb 0.00 in0.0 mm 0.00 in0.0 mm 0.04 in1.0 mm
03:45 PM 43.0°F6.1°C 37.2°F2.9°C 80% 7.0 mph ESE11.3 kmh ESE 14.0 mph22.5 kmh 29.62 in1003.0 mb 0.00 in0.0 mm 0.00 in0.0 mm 0.04 in1.0 mm
04:00 PM 43.0°F6.1°C 37.5°F3.1°C 81% 5.6 mph SE9.0 kmh SE 16.1 mph25.9 kmh 29.62 in1003.0 mb 0.00 in0.0 mm 0.00 in0.0 mm 0.04 in1.0 mm
04:15 PM 42.8°F6.0°C 37.4°F3.0°C 81% 6.4 mph SE10.3 kmh SE 12.5 mph20.1 kmh 29.59 in1002.0 mb 0.00 in0.0 mm 0.00 in0.0 mm 0.04 in1.0 mm
04:30 PM 42.6°F5.9°C 37.5°F3.1°C 82% 6.6 mph SE10.6 kmh SE 15.7 mph25.3 kmh 29.59 in1002.0 mb 0.00 in0.0 mm 0.00 in0.0 mm 0.04 in1.0 mm
04:45 PM 42.3°F5.7°C 37.5°F3.1°C 83% 7.4 mph SE11.9 kmh SE 24.7 mph39.8 kmh 29.56 in1001.0 mb 0.00 in0.0 mm 0.00 in0.0 mm 0.04 in1.0 mm
05:00 PM 41.9°F5.5°C 37.4°F3.0°C 84% 6.7 mph SE10.8 kmh SE 16.5 mph26.6 kmh 29.59 in1002.0 mb 0.00 in0.0 mm 0.00 in0.0 mm 0.04 in1.0 mm
05:15 PM 41.5°F5.3°C 37.4°F3.0°C 85% 6.4 mph SSE10.3 kmh SSE 16.5 mph26.6 kmh 29.59 in1002.0 mb 0.00 in0.0 mm 0.00 in0.0 mm 0.04 in1.0 mm
05:30 PM 41.2°F5.1°C 37.9°F3.3°C 88% 7.7 mph SE12.4 kmh SE 19.3 mph31.1 kmh 29.59 in1002.0 mb 0.00 in0.0 mm 0.00 in0.0 mm 0.04 in1.0 mm
05:45 PM 41.0°F5.0°C 37.7°F3.2°C 88% 10.6 mph SE17.1 kmh SE 27.6 mph44.4 kmh 29.56 in1001.0 mb 0.06 in1.5 mm 0.24 in6.1 mm 0.10 in2.5 mm
06:00 PM 40.5°F4.7°C 36.9°F2.7°C 87% 8.5 mph SSE13.7 kmh SSE 24.7 mph39.8 kmh 29.56 in1001.0 mb 0.06 in1.5 mm 0.00 in0.0 mm 0.10 in2.5 mm
06:15 PM 40.1°F4.5°C 36.8°F2.7°C 88% 9.7 mph SE15.6 kmh SE 25.1 mph40.4 kmh 29.53 in1000.0 mb 0.11 in2.8 mm 0.20 in5.1 mm 0.15 in3.8 mm
06:30 PM 39.9°F4.4°C 36.7°F2.6°C 88% 12.0 mph SE19.3 kmh SE 24.3 mph39.1 kmh 29.53 in1000.0 mb 0.11 in2.8 mm 0.00 in0.0 mm 0.15 in3.8 mm
06:45 PM 39.7°F4.3°C 36.8°F2.7°C 89% 11.4 mph SE18.3 kmh SE 21.8 mph35.1 kmh 29.50 in999.0 mb 0.05 in1.3 mm 0.00 in0.0 mm 0.15 in3.8 mm
07:00 PM 39.6°F4.2°C 36.6°F2.6°C 89% 10.3 mph ESE16.6 kmh ESE 30.8 mph49.6 kmh 29.53 in1000.0 mb 0.10 in2.5 mm 0.07 in1.8 mm 0.20 in5.1 mm
07:15 PM 39.4°F4.1°C 36.7°F2.6°C 90% 12.6 mph ESE20.3 kmh ESE 24.7 mph39.8 kmh 29.53 in1000.0 mb 0.05 in1.3 mm 0.00 in0.0 mm 0.20 in5.1 mm
07:30 PM 39.4°F4.1°C 36.7°F2.6°C 90% 9.9 mph ESE15.9 kmh ESE 20.4 mph32.8 kmh 29.53 in1000.0 mb 0.10 in2.5 mm 0.20 in5.1 mm 0.25 in6.4 mm
07:45 PM 39.2°F4.0°C 36.8°F2.7°C 91% 11.5 mph ESE18.5 kmh ESE 19.7 mph31.7 kmh 29.50 in999.0 mb 0.10 in2.5 mm 0.00 in0.0 mm 0.25 in6.4 mm
08:00 PM 39.2°F4.0°C 36.8°F2.7°C 91% 10.4 mph ESE16.7 kmh ESE 24.3 mph39.1 kmh 29.50 in999.0 mb 0.10 in2.5 mm 0.00 in0.0 mm 0.30 in7.6 mm
08:15 PM 39.4°F4.1°C 37.2°F2.9°C 92% 10.5 mph ESE16.9 kmh ESE 25.8 mph41.5 kmh 29.47 in998.0 mb 0.10 in2.5 mm 0.00 in0.0 mm 0.30 in7.6 mm
08:30 PM 39.4°F4.1°C 37.2°F2.9°C 92% 9.5 mph ESE15.3 kmh ESE 17.5 mph28.2 kmh 29.47 in998.0 mb 0.11 in2.8 mm 0.04 in1.0 mm 0.36 in9.1 mm
08:45 PM 39.6°F4.2°C 37.7°F3.2°C 93% 8.7 mph ESE14.0 kmh ESE 19.0 mph30.6 kmh 29.47 in998.0 mb 0.11 in2.8 mm 0.00 in0.0 mm 0.36 in9.1 mm
09:00 PM 39.7°F4.3°C 37.9°F3.3°C 93% 8.7 mph SE14.0 kmh SE 17.5 mph28.2 kmh 29.47 in998.0 mb 0.11 in2.8 mm 0.00 in0.0 mm 0.41 in10.4 mm
09:15 PM 39.9°F4.4°C 38.3°F3.5°C 94% 9.2 mph ESE14.8 kmh ESE 20.4 mph32.8 kmh 29.47 in998.0 mb 0.11 in2.8 mm 0.00 in0.0 mm 0.41 in10.4 mm
09:30 PM 40.1°F4.5°C 38.5°F3.6°C 94% 9.7 mph SE15.6 kmh SE 23.3 mph37.5 kmh 29.47 in998.0 mb 0.10 in2.5 mm 0.00 in0.0 mm 0.46 in11.7 mm
09:45 PM 40.3°F4.6°C 38.7°F3.7°C 94% 6.3 mph SE10.1 kmh SE 16.8 mph27.0 kmh 29.47 in998.0 mb 0.10 in2.5 mm 0.00 in0.0 mm 0.46 in11.7 mm
10:00 PM 40.5°F4.7°C 38.9°F3.8°C 94% 9.1 mph ESE14.6 kmh ESE 24.7 mph39.8 kmh 29.45 in997.3 mb 0.10 in2.5 mm 0.00 in0.0 mm 0.51 in13.0 mm
10:15 PM 40.5°F4.7°C 38.9°F3.8°C 94% 8.7 mph SE14.0 kmh SE 20.0 mph32.2 kmh 29.41 in995.9 mb 0.10 in2.5 mm 0.00 in0.0 mm 0.51 in13.0 mm
10:30 PM 40.6°F4.8°C 39.0°F3.9°C 94% 8.5 mph SE13.7 kmh SE 20.4 mph32.8 kmh 29.39 in995.3 mb 0.10 in2.5 mm 0.00 in0.0 mm 0.56 in14.2 mm
10:45 PM 41.0°F5.0°C 39.4°F4.1°C 94% 8.3 mph SE13.4 kmh SE 19.0 mph30.6 kmh 29.41 in995.9 mb 0.10 in2.5 mm 0.00 in0.0 mm 0.56 in14.2 mm
11:00 PM 41.2°F5.1°C 39.6°F4.2°C 94% 11.6 mph SE18.7 kmh SE 27.9 mph44.9 kmh 29.41 in995.9 mb 0.10 in2.5 mm 0.00 in0.0 mm 0.61 in15.5 mm
11:15 PM 41.4°F5.2°C 39.8°F4.3°C 94% 4.2 mph SSE6.8 kmh SSE 12.9 mph20.8 kmh 29.41 in995.9 mb 0.10 in2.5 mm 0.00 in0.0 mm 0.61 in15.5 mm
11:30 PM 41.5°F5.3°C 39.9°F4.4°C 94% 8.3 mph SE13.4 kmh SE 21.1 mph34.0 kmh 29.39 in995.3 mb 0.10 in2.5 mm 0.00 in0.0 mm 0.66 in16.8 mm
11:45 PM 41.5°F5.3°C 39.9°F4.4°C 94% 9.1 mph SE14.6 kmh SE 21.1 mph34.0 kmh 29.36 in994.2 mb 0.10 in2.5 mm 0.00 in0.0 mm 0.66 in16.8 mm